METAR AND TAF INFORMATION
METAR FOR EHGR
ADDS - METARS form results

(1117 UTC 18 January 2019)
Data provider http://aviationweather.gov/metar/data/
 
METAR text: EHGR 181055Z AUTO 18006KT 130V190 9999 NCD 03/01 Q1020 BLU 17004KT 4500 BR BECMG 9999 NSW
Conditions at: EHGR (GILZE-RIJEN RNLA, NL) observed 1055 UTC 18 January 2019
Temperature: 3.0°C (37°F)
Dewpoint: 1.0°C (34°F) [RH = 87%]
Pressure (altimeter): 30.12 inches Hg (1020.0 mb)
Winds: from the S (180 degrees) at 7 MPH (6 knots; 3.1 m/s)
Visibility: 6 or more miles (10+ km)
Ceiling: at least 12,000 feet AGL
Clouds: sky clear below 12,000 feet AGL
Weather: BR  (mist)

METAR text: EHGR 181025Z AUTO 17003KT 110V180 9999 OVC180 02/01 Q1020 BLU 17004KT 4500 BR BECMG 9999 NSW
Conditions at: EHGR (GILZE-RIJEN RNLA, NL) observed 1025 UTC 18 January 2019
Temperature: 2.0°C (36°F)
Dewpoint: 1.0°C (34°F) [RH = 93%]
Pressure (altimeter): 30.12 inches Hg (1020.0 mb)
Winds: from the S (170 degrees) at 3 MPH (3 knots; 1.5 m/s)
Visibility: 6 or more miles (10+ km)
Ceiling: 18000 feet AGL
Clouds: overcast cloud deck at 18000 feet AGL
Weather: BR  (mist)

Forecast for: EHGR (GILZE-RIJEN RNLA, NL)
Text: TAF EHGR 180931Z 1810/1822 VRB02KT 6000 NSC
Forecast period: 1000 to 2200 UTC 18 January 2019
Forecast type: FROM: standard forecast or significant change
Winds: variable direction winds at 2 MPH (2 knots; 1.0 m/s)
Visibility: 4 miles (6 km)
Ceiling: unknown
Clouds: missing
Weather: no significant weather forecast for this period
Text: BECMG 1810/1812 17005KT
Forecast period: 1000 to 2200 UTC 18 January 2019
Forecast type: BECOMING: Conditions expected to become as follows by 1200 UTC 18 January 2019
Winds: from the S (170 degrees) at 6 MPH (5 knots; 2.6 m/s)
Visibility: 4 miles (6 km)
Ceiling: unknown
Clouds: missing
Weather: no significant weather forecast for this period

 AIRPORT MAP

 RUNWAY INFORMATION
Runway 02 Runway length 6549 ft Runway width 98 ft
Runway elevation 49 ft Runway displaced threshold 191 ft Runway heading 18
Runway 20 Runway length 6549 ft Runway width 98 ft
Runway elevation 40 ft Runway displaced threshold 192 ft Runway heading 198
Runway 10 Runway length 9118 ft Runway width 148 ft
Runway elevation 42 ft Runway displaced threshold 427 ft Runway heading 100
Runway 28 Runway length 9118 ft Runway width 148 ft
Runway elevation 38 ft Runway displaced threshold 331 ft Runway heading 280

 AIRPORT FREQUENCIES
Type ARR Name RAPCON WES Frequency 123.575 MHZ
Type GND Name GND Frequency 23.492 MHZ
Type TWR Name TWR Frequency 125.325 MHZ

 AIRPORT NEAR NAVIGATION AIDS
Type TACAN Name Gilze Rijen Frequency 116400 KHZ